createdAt,value
2019-05-18T00:00:58.030Z,101198.12
2019-05-18T00:06:03.269Z,101188.98
2019-05-18T00:11:08.611Z,101185.28
2019-05-18T00:16:13.888Z,101181.39
2019-05-18T00:21:19.183Z,101191.03
2019-05-18T00:26:24.501Z,101190.80
2019-05-18T00:31:29.801Z,101193.39
2019-05-18T00:36:35.371Z,101206.47
2019-05-18T00:41:40.571Z,101194.59
2019-05-18T00:46:45.966Z,101196.41
2019-05-18T00:51:51.385Z,101198.02
2019-05-18T00:56:56.631Z,101202.22
2019-05-18T01:02:01.954Z,101200.44
2019-05-18T01:07:07.099Z,101198.30
2019-05-18T01:12:12.572Z,101194.38
2019-05-18T01:17:18.011Z,101192.55
2019-05-18T01:22:23.352Z,101195.68
2019-05-18T01:27:28.824Z,101186.92
2019-05-18T01:32:34.180Z,101198.10
2019-05-18T01:37:39.842Z,101196.05
2019-05-18T01:42:45.512Z,101197.53
2019-05-18T01:47:50.972Z,101192.37
2019-05-18T01:52:56.734Z,101192.59
2019-05-18T01:58:01.960Z,101196.49
2019-05-18T02:03:07.185Z,101197.81
2019-05-18T02:08:12.631Z,101187.54
2019-05-18T02:13:17.979Z,101200.23
2019-05-18T02:18:29.073Z,101199.64
2019-05-18T02:23:30.135Z,101196.52
2019-05-18T02:28:35.483Z,101200.13
2019-05-18T02:33:40.951Z,101198.13
2019-05-18T02:38:46.343Z,101208.17
2019-05-18T02:43:51.682Z,101215.38
2019-05-18T02:48:57.016Z,101212.31
2019-05-18T02:54:02.475Z,101208.10
2019-05-18T02:59:07.933Z,101210.64
2019-05-18T03:04:14.153Z,101215.20
2019-05-18T03:09:19.577Z,101222.53
2019-05-18T03:14:24.886Z,101213.56
2019-05-18T03:19:30.112Z,101213.06
2019-05-18T03:24:35.759Z,101217.05
2019-05-18T03:29:41.014Z,101208.27
2019-05-18T03:34:46.236Z,101218.97
2019-05-18T03:39:51.334Z,101227.63
2019-05-18T03:44:56.807Z,101207.32
2019-05-18T03:50:02.354Z,101205.59
2019-05-18T03:55:07.824Z,101210.74
2019-05-18T04:00:13.110Z,101206.16
2019-05-18T04:05:18.531Z,101205.23
2019-05-18T04:10:28.102Z,101206.95
2019-05-18T04:15:33.185Z,101206.05
2019-05-18T04:20:38.684Z,101212.47
2019-05-18T04:25:44.275Z,101209.29
2019-05-18T04:30:49.674Z,101213.50
2019-05-18T04:35:55.131Z,101202.12
2019-05-18T04:41:00.492Z,101221.95
2019-05-18T04:46:05.640Z,101216.33
2019-05-18T04:51:11.118Z,101231.93
2019-05-18T04:56:16.469Z,101238.38
2019-05-18T05:01:21.871Z,101229.52
2019-05-18T05:06:26.950Z,101241.55
2019-05-18T05:11:32.091Z,101250.23
2019-05-18T05:16:37.235Z,101257.98
2019-05-18T05:21:42.468Z,101245.80
2019-05-18T05:26:47.959Z,101252.41
2019-05-18T05:31:53.311Z,101236.78
2019-05-18T05:36:58.476Z,101242.52
2019-05-18T05:42:03.710Z,101245.73
2019-05-18T05:47:08.908Z,101251.23
2019-05-18T05:52:14.218Z,101242.23
2019-05-18T05:57:19.586Z,101248.97
2019-05-18T06:02:24.835Z,101236.02
2019-05-18T06:07:30.216Z,101233.21
2019-05-18T06:12:35.691Z,101212.53
2019-05-18T06:17:41.021Z,101195.28
2019-05-18T06:22:46.457Z,101189.78
2019-05-18T06:27:51.598Z,101195.52
2019-05-18T06:32:56.825Z,101187.63
2019-05-18T06:38:01.903Z,101183.36
2019-05-18T06:43:07.078Z,101183.41
2019-05-18T06:48:12.326Z,101166.45
2019-05-18T06:53:17.488Z,101166.64
2019-05-18T06:58:23.808Z,101166.56
2019-05-18T07:03:29.376Z,101169.26
2019-05-18T07:08:36.278Z,101159.16
2019-05-18T07:13:41.715Z,101165.58
2019-05-18T07:18:46.875Z,101170.53
2019-05-18T07:23:52.028Z,101164.05
2019-05-18T07:28:57.380Z,101167.80
2019-05-18T07:34:02.628Z,101165.30
2019-05-18T07:39:08.610Z,101164.94
2019-05-18T07:44:13.816Z,101161.25
2019-05-18T07:49:18.878Z,101158.78
2019-05-18T07:54:24.394Z,101153.80
2019-05-18T07:59:29.838Z,101150.64
2019-05-18T08:04:35.112Z,101163.70
2019-05-18T08:09:40.552Z,101159.91
2019-05-18T08:14:45.715Z,101151.64
2019-05-18T08:19:52.957Z,101149.66
2019-05-18T08:24:58.284Z,101159.34
2019-05-18T08:30:04.129Z,101140.77
2019-05-18T08:35:09.917Z,101144.59
2019-05-18T08:40:15.607Z,101151.83
2019-05-18T08:45:21.045Z,101144.00
2019-05-18T08:50:26.146Z,101152.09
2019-05-18T08:55:31.310Z,101152.16
2019-05-18T09:00:37.012Z,101147.03
2019-05-18T09:05:42.784Z,101134.85
2019-05-18T09:10:48.172Z,101154.80
2019-05-18T09:15:53.561Z,101156.52
2019-05-18T09:20:58.948Z,101163.59
2019-05-18T09:26:04.547Z,101177.81
2019-05-18T09:31:10.378Z,101174.88
2019-05-18T09:36:15.568Z,101175.52
2019-05-18T09:41:20.904Z,101172.37
2019-05-18T09:46:26.266Z,101168.02
2019-05-18T09:51:31.468Z,101165.53
2019-05-18T09:56:36.683Z,101157.09
2019-05-18T10:01:41.940Z,101151.87
2019-05-18T10:06:47.041Z,101144.36
2019-05-18T10:11:52.248Z,101143.39
2019-05-18T10:16:57.556Z,101143.57
2019-05-18T10:22:02.917Z,101138.82
2019-05-18T10:27:08.125Z,101127.95
2019-05-18T10:32:13.348Z,101143.55
2019-05-18T10:37:18.695Z,101131.56
2019-05-18T10:42:24.074Z,101111.42
2019-05-18T10:47:29.454Z,101102.67
2019-05-18T10:52:34.760Z,101096.39
2019-05-18T10:57:40.068Z,101114.06
2019-05-18T11:02:45.421Z,101142.19
2019-05-18T11:07:50.736Z,101146.80
2019-05-18T11:12:56.183Z,101096.90
2019-05-18T11:18:01.398Z,101067.94
2019-05-18T11:23:06.905Z,101030.80
2019-05-18T11:28:12.203Z,101081.77
2019-05-18T11:33:17.379Z,101083.19
2019-05-18T11:38:23.129Z,101080.67
2019-05-18T11:43:28.251Z,101053.84
2019-05-18T11:48:33.595Z,101041.48
2019-05-18T11:53:38.922Z,101043.08
2019-05-18T11:58:44.067Z,101048.53
2019-05-18T12:03:49.186Z,101041.63
2019-05-18T12:08:54.371Z,101039.39
2019-05-18T12:13:59.491Z,101044.69
2019-05-18T12:19:04.772Z,101047.82
2019-05-18T12:24:15.609Z,101051.78
2019-05-18T12:29:17.650Z,101044.30
2019-05-18T12:34:23.814Z,101040.33
2019-05-18T12:39:29.201Z,101044.22
2019-05-18T12:44:34.598Z,101042.45
2019-05-18T12:49:39.769Z,101047.33
2019-05-18T12:54:46.950Z,101054.85
2019-05-18T12:59:51.822Z,101054.28
2019-05-18T13:04:56.931Z,101062.78
2019-05-18T13:10:02.079Z,101064.84
2019-05-18T13:15:09.581Z,101056.41
2019-05-18T13:20:17.124Z,101054.97
2019-05-18T13:25:22.776Z,101034.39
2019-05-18T13:30:28.093Z,101033.16
2019-05-18T13:35:33.397Z,101038.89
2019-05-18T13:40:38.741Z,101034.13
2019-05-18T13:45:44.070Z,101030.41
2019-05-18T13:50:49.416Z,101019.85
2019-05-18T13:55:54.780Z,101016.91
2019-05-18T14:01:00.159Z,101019.11
2019-05-18T14:06:05.722Z,101006.70
2019-05-18T14:11:10.964Z,100999.39
2019-05-18T14:16:16.187Z,101000.34
2019-05-18T14:21:23.156Z,100991.23
2019-05-18T14:26:32.174Z,100983.46
2019-05-18T14:31:37.530Z,100976.94
2019-05-18T14:36:43.091Z,100966.00
2019-05-18T14:41:49.771Z,100964.27
2019-05-18T14:46:55.004Z,100959.37
2019-05-18T14:52:00.399Z,100952.75
2019-05-18T14:57:06.002Z,100962.28
2019-05-18T15:02:11.619Z,100966.15
2019-05-18T15:07:17.092Z,100958.14
2019-05-18T15:12:22.388Z,100962.63
2019-05-18T15:17:27.749Z,100965.00
2019-05-18T15:22:33.832Z,100963.09
2019-05-18T15:27:39.340Z,100964.33
2019-05-18T15:32:44.668Z,100958.97
2019-05-18T15:37:49.878Z,100963.58
2019-05-18T15:42:55.406Z,100965.32
2019-05-18T15:48:00.880Z,100974.00
2019-05-18T15:53:06.282Z,100973.76
2019-05-18T15:58:11.900Z,100968.30
2019-05-18T16:03:17.211Z,100964.62
2019-05-18T16:08:22.470Z,100961.48
2019-05-18T16:13:27.956Z,100966.20
2019-05-18T16:18:35.507Z,100968.71
2019-05-18T16:23:40.899Z,100966.64
2019-05-18T16:28:46.341Z,100962.03
2019-05-18T16:33:51.663Z,100966.28
2019-05-18T16:38:57.025Z,100970.40
2019-05-18T16:44:02.942Z,100973.69
2019-05-18T16:49:08.457Z,100979.37
2019-05-18T16:54:14.621Z,100965.66
2019-05-18T16:59:19.915Z,100965.82
2019-05-18T17:04:25.258Z,100957.14
2019-05-18T17:09:30.483Z,100949.45
2019-05-18T17:14:36.174Z,100958.87
2019-05-18T17:19:41.546Z,100951.64
2019-05-18T17:24:47.009Z,100943.59
2019-05-18T17:29:52.212Z,100942.95
2019-05-18T17:34:57.722Z,100948.05
2019-05-18T17:40:03.197Z,100941.87
2019-05-18T17:45:09.269Z,100940.89
2019-05-18T17:50:15.975Z,100945.28
2019-05-18T17:55:21.283Z,100942.05
2019-05-18T18:00:26.778Z,100938.59
2019-05-18T18:05:32.415Z,100950.36
2019-05-18T18:10:38.100Z,100945.86
2019-05-18T18:15:43.613Z,100944.12
2019-05-18T18:20:49.166Z,100961.49
2019-05-18T18:25:54.584Z,100957.20
2019-05-18T18:30:59.944Z,100960.44
2019-05-18T18:36:05.498Z,100970.58
2019-05-18T18:41:11.089Z,100974.56
2019-05-18T18:46:16.629Z,100984.65
2019-05-18T18:51:21.952Z,100972.02
2019-05-18T18:56:27.560Z,100967.47
2019-05-18T19:01:32.701Z,100980.89
2019-05-18T19:06:37.956Z,100966.63
2019-05-18T19:11:43.142Z,100963.73
2019-05-18T19:16:48.395Z,100973.91
2019-05-18T19:21:53.512Z,100964.09
2019-05-18T19:26:58.815Z,100956.64
2019-05-18T19:32:04.045Z,100945.28
2019-05-18T19:37:09.326Z,100950.02
2019-05-18T19:42:14.620Z,100957.05
2019-05-18T19:47:19.874Z,100963.63
2019-05-18T19:52:25.104Z,100963.16
2019-05-18T19:57:30.324Z,100958.56
2019-05-18T20:02:35.605Z,100962.56
2019-05-18T20:07:40.831Z,100962.03
2019-05-18T20:12:46.185Z,100965.13
2019-05-18T20:17:51.411Z,100975.99
2019-05-18T20:22:56.779Z,100972.05
2019-05-18T20:28:02.115Z,100972.59
2019-05-18T20:33:07.479Z,100964.66
2019-05-18T20:38:12.982Z,100961.08
2019-05-18T20:43:18.226Z,100973.71
2019-05-18T20:48:23.629Z,100968.61
2019-05-18T20:53:29.059Z,100962.26
2019-05-18T20:58:40.155Z,100958.27
2019-05-18T21:03:41.568Z,100961.30
2019-05-18T21:08:47.084Z,100961.08
2019-05-18T21:13:52.556Z,100959.91
2019-05-18T21:18:57.814Z,100951.08
2019-05-18T21:24:03.291Z,100942.31
2019-05-18T21:29:08.832Z,100948.30
2019-05-18T21:34:14.073Z,100955.97
2019-05-18T21:39:19.388Z,100959.96
2019-05-18T21:44:24.914Z,100961.28
2019-05-18T21:49:30.265Z,100956.17
2019-05-18T21:54:36.864Z,100946.58
2019-05-18T21:59:42.444Z,100943.84
2019-05-18T22:04:47.880Z,100942.51
2019-05-18T22:09:53.877Z,100955.98
2019-05-18T22:14:59.520Z,100943.98
2019-05-18T22:20:06.209Z,100940.18
2019-05-18T22:25:11.568Z,100921.34
2019-05-18T22:30:16.825Z,100931.19
2019-05-18T22:35:22.154Z,100919.81
2019-05-18T22:40:27.498Z,100916.52
2019-05-18T22:45:32.895Z,100915.13
2019-05-18T22:50:38.369Z,100917.03
2019-05-18T22:55:43.846Z,100901.66
2019-05-18T23:00:49.287Z,100898.54
2019-05-18T23:05:54.730Z,100890.73
2019-05-18T23:11:01.267Z,100896.49
2019-05-18T23:16:06.647Z,100895.99
2019-05-18T23:21:12.142Z,100887.97
2019-05-18T23:26:17.610Z,100887.14
2019-05-18T23:31:22.864Z,100880.17
2019-05-18T23:36:28.220Z,100867.48
2019-05-18T23:41:33.675Z,100876.72
2019-05-18T23:46:39.043Z,100890.52
2019-05-18T23:51:44.191Z,100889.61
2019-05-18T23:56:49.655Z,100899.74
